sensor_id;sensor_type;location;lat;lon;timestamp;pressure;altitude;pressure_sealevel;temperature
69597;BMP180;70000;51.176;-115.568;2023-09-18T00:01:15;85850.20;;;26.50
69597;BMP180;70000;51.176;-115.568;2023-09-18T00:04:05;85850.80;;;26.50
69597;BMP180;70000;51.176;-115.568;2023-09-18T00:06:43;85850.80;;;26.50
69597;BMP180;70000;51.176;-115.568;2023-09-18T00:13:29;85847.40;;;26.64
69597;BMP180;70000;51.176;-115.568;2023-09-18T00:15:58;85844.00;;;26.90
69597;BMP180;70000;51.176;-115.568;2023-09-18T00:22:39;85845.40;;;27.50
69597;BMP180;70000;51.176;-115.568;2023-09-18T00:25:28;85853.00;;;27.40
69597;BMP180;70000;51.176;-115.568;2023-09-18T00:28:01;85850.00;;;27.20
69597;BMP180;70000;51.176;-115.568;2023-09-18T00:30:33;85853.00;;;27.10
69597;BMP180;70000;51.176;-115.568;2023-09-18T00:37:06;85862.00;;;26.90
69597;BMP180;70000;51.176;-115.568;2023-09-18T00:39:44;85861.80;;;26.80
69597;BMP180;70000;51.176;-115.568;2023-09-18T00:42:17;85854.80;;;26.56
69597;BMP180;70000;51.176;-115.568;2023-09-18T00:44:49;85859.20;;;26.20
69597;BMP180;70000;51.176;-115.568;2023-09-18T00:47:32;85857.20;;;25.86
69597;BMP180;70000;51.176;-115.568;2023-09-18T00:50:14;85858.00;;;25.56
69597;BMP180;70000;51.176;-115.568;2023-09-18T00:52:57;85866.60;;;25.30
69597;BMP180;70000;51.176;-115.568;2023-09-18T00:55:33;85870.60;;;25.00
69597;BMP180;70000;51.176;-115.568;2023-09-18T00:58:29;85862.80;;;24.76
69597;BMP180;70000;51.176;-115.568;2023-09-18T01:01:21;85871.80;;;24.50
69597;BMP180;70000;51.176;-115.568;2023-09-18T01:04:00;85866.00;;;24.30
69597;BMP180;70000;51.176;-115.568;2023-09-18T01:06:51;85864.80;;;24.10
69597;BMP180;70000;51.176;-115.568;2023-09-18T01:09:33;85874.20;;;23.90
69597;BMP180;70000;51.176;-115.568;2023-09-18T01:15:33;85877.00;;;23.60
69597;BMP180;70000;51.176;-115.568;2023-09-18T01:18:26;85874.80;;;23.34
69597;BMP180;70000;51.176;-115.568;2023-09-18T01:21:38;85876.00;;;23.20
69597;BMP180;70000;51.176;-115.568;2023-09-18T01:24:46;85876.60;;;22.94
69597;BMP180;70000;51.176;-115.568;2023-09-18T01:27:35;85878.80;;;22.80
69597;BMP180;70000;51.176;-115.568;2023-09-18T01:30:35;85885.80;;;22.64
69597;BMP180;70000;51.176;-115.568;2023-09-18T01:33:16;85881.60;;;22.50
69597;BMP180;70000;51.176;-115.568;2023-09-18T01:36:00;85890.00;;;22.30
69597;BMP180;70000;51.176;-115.568;2023-09-18T01:39:14;85887.40;;;22.10
69597;BMP180;70000;51.176;-115.568;2023-09-18T01:46:17;85902.60;;;21.70
69597;BMP180;70000;51.176;-115.568;2023-09-18T01:48:56;85898.80;;;21.60
69597;BMP180;70000;51.176;-115.568;2023-09-18T01:51:47;85897.60;;;21.50
69597;BMP180;70000;51.176;-115.568;2023-09-18T01:57:47;85901.20;;;21.30
69597;BMP180;70000;51.176;-115.568;2023-09-18T02:00:54;85900.00;;;21.20
69597;BMP180;70000;51.176;-115.568;2023-09-18T02:03:42;85904.40;;;21.10
69597;BMP180;70000;51.176;-115.568;2023-09-18T02:14:12;85906.00;;;20.72
69597;BMP180;70000;51.176;-115.568;2023-09-18T02:17:00;85913.40;;;20.68
69597;BMP180;70000;51.176;-115.568;2023-09-18T02:19:45;85917.00;;;20.60
69597;BMP180;70000;51.176;-115.568;2023-09-18T02:23:04;85917.60;;;20.50
69597;BMP180;70000;51.176;-115.568;2023-09-18T02:26:04;85910.20;;;20.40
69597;BMP180;70000;51.176;-115.568;2023-09-18T02:28:35;85917.40;;;20.30
69597;BMP180;70000;51.176;-115.568;2023-09-18T02:31:18;85920.80;;;20.24
69597;BMP180;70000;51.176;-115.568;2023-09-18T02:34:10;85923.20;;;20.20
69597;BMP180;70000;51.176;-115.568;2023-09-18T02:37:22;85921.20;;;20.14
69597;BMP180;70000;51.176;-115.568;2023-09-18T02:45:11;85920.00;;;19.92
69597;BMP180;70000;51.176;-115.568;2023-09-18T02:48:19;85922.60;;;19.90
69597;BMP180;70000;51.176;-115.568;2023-09-18T02:55:22;85929.40;;;19.80
69597;BMP180;70000;51.176;-115.568;2023-09-18T02:58:34;85929.60;;;19.70
69597;BMP180;70000;51.176;-115.568;2023-09-18T03:09:52;85935.20;;;19.60
69597;BMP180;70000;51.176;-115.568;2023-09-18T03:12:53;85936.80;;;19.60
69597;BMP180;70000;51.176;-115.568;2023-09-18T03:15:29;85944.40;;;19.60
69597;BMP180;70000;51.176;-115.568;2023-09-18T03:18:07;85946.20;;;19.60
69597;BMP180;70000;51.176;-115.568;2023-09-18T03:21:11;85939.80;;;19.50
69597;BMP180;70000;51.176;-115.568;2023-09-18T03:23:55;85942.00;;;19.50
69597;BMP180;70000;51.176;-115.568;2023-09-18T03:27:02;85945.20;;;19.48
69597;BMP180;70000;51.176;-115.568;2023-09-18T03:30:27;85943.80;;;19.40
69597;BMP180;70000;51.176;-115.568;2023-09-18T03:33:45;85944.80;;;19.40
69597;BMP180;70000;51.176;-115.568;2023-09-18T03:36:55;85943.40;;;19.30
69597;BMP180;70000;51.176;-115.568;2023-09-18T03:39:57;85943.60;;;19.30
69597;BMP180;70000;51.176;-115.568;2023-09-18T03:47:01;85943.20;;;19.30
69597;BMP180;70000;51.176;-115.568;2023-09-18T03:49:37;85932.00;;;19.20
69597;BMP180;70000;51.176;-115.568;2023-09-18T03:52:17;85937.80;;;19.20
69597;BMP180;70000;51.176;-115.568;2023-09-18T03:54:50;85936.20;;;19.20
69597;BMP180;70000;51.176;-115.568;2023-09-18T03:57:32;85934.80;;;19.10
69597;BMP180;70000;51.176;-115.568;2023-09-18T04:00:09;85934.00;;;19.00
69597;BMP180;70000;51.176;-115.568;2023-09-18T04:02:47;85939.20;;;18.92
69597;BMP180;70000;51.176;-115.568;2023-09-18T04:05:29;85935.60;;;18.82
69597;BMP180;70000;51.176;-115.568;2023-09-18T04:08:18;85932.20;;;18.72
69597;BMP180;70000;51.176;-115.568;2023-09-18T04:10:58;85928.60;;;18.64
69597;BMP180;70000;51.176;-115.568;2023-09-18T04:14:07;85931.00;;;18.60
69597;BMP180;70000;51.176;-115.568;2023-09-18T04:16:51;85926.80;;;18.40
69597;BMP180;70000;51.176;-115.568;2023-09-18T04:19:51;85925.80;;;18.36
69597;BMP180;70000;51.176;-115.568;2023-09-18T04:22:32;85928.00;;;18.28
69597;BMP180;70000;51.176;-115.568;2023-09-18T04:25:08;85922.60;;;18.20
69597;BMP180;70000;51.176;-115.568;2023-09-18T04:27:42;85926.20;;;18.10
69597;BMP180;70000;51.176;-115.568;2023-09-18T04:30:16;85926.00;;;18.10
69597;BMP180;70000;51.176;-115.568;2023-09-18T04:32:47;85928.20;;;18.00
69597;BMP180;70000;51.176;-115.568;2023-09-18T04:35:44;85924.40;;;17.92
69597;BMP180;70000;51.176;-115.568;2023-09-18T04:38:34;85924.20;;;17.90
69597;BMP180;70000;51.176;-115.568;2023-09-18T04:41:07;85926.40;;;17.80
69597;BMP180;70000;51.176;-115.568;2023-09-18T04:43:50;85924.60;;;17.70
69597;BMP180;70000;51.176;-115.568;2023-09-18T04:46:31;85916.60;;;17.66
69597;BMP180;70000;51.176;-115.568;2023-09-18T04:49:16;85910.40;;;17.60
69597;BMP180;70000;51.176;-115.568;2023-09-18T04:51:49;85918.20;;;17.50
69597;BMP180;70000;51.176;-115.568;2023-09-18T04:54:27;85921.00;;;17.40
69597;BMP180;70000;51.176;-115.568;2023-09-18T04:57:02;85919.00;;;17.30
69597;BMP180;70000;51.176;-115.568;2023-09-18T04:59:37;85917.00;;;17.20
69597;BMP180;70000;51.176;-115.568;2023-09-18T05:02:10;85921.40;;;17.18
69597;BMP180;70000;51.176;-115.568;2023-09-18T05:04:42;85923.40;;;17.10
69597;BMP180;70000;51.176;-115.568;2023-09-18T05:07:12;85923.00;;;17.00
69597;BMP180;70000;51.176;-115.568;2023-09-18T05:09:43;85919.20;;;16.90
69597;BMP180;70000;51.176;-115.568;2023-09-18T05:12:45;85914.20;;;16.90
69597;BMP180;70000;51.176;-115.568;2023-09-18T05:15:19;85909.60;;;16.80
69597;BMP180;70000;51.176;-115.568;2023-09-18T05:18:19;85909.20;;;16.78
69597;BMP180;70000;51.176;-115.568;2023-09-18T05:21:14;85914.60;;;16.70
69597;BMP180;70000;51.176;-115.568;2023-09-18T05:24:14;85918.80;;;16.60
69597;BMP180;70000;51.176;-115.568;2023-09-18T05:26:56;85917.40;;;16.60
69597;BMP180;70000;51.176;-115.568;2023-09-18T05:29:41;85920.20;;;16.50
69597;BMP180;70000;51.176;-115.568;2023-09-18T05:32:50;85918.60;;;16.40
69597;BMP180;70000;51.176;-115.568;2023-09-18T05:35:49;85917.20;;;16.40
69597;BMP180;70000;51.176;-115.568;2023-09-18T05:38:45;85918.00;;;16.30
69597;BMP180;70000;51.176;-115.568;2023-09-18T05:41:45;85918.80;;;16.20
69597;BMP180;70000;51.176;-115.568;2023-09-18T05:44:52;85919.40;;;16.10
69597;BMP180;70000;51.176;-115.568;2023-09-18T05:47:27;85929.20;;;16.10
69597;BMP180;70000;51.176;-115.568;2023-09-18T05:50:19;85928.80;;;16.00
69597;BMP180;70000;51.176;-115.568;2023-09-18T05:53:00;85928.20;;;16.00
69597;BMP180;70000;51.176;-115.568;2023-09-18T05:55:51;85928.80;;;15.90
69597;BMP180;70000;51.176;-115.568;2023-09-18T05:58:33;85919.80;;;15.90
69597;BMP180;70000;51.176;-115.568;2023-09-18T06:01:18;85931.00;;;15.90
69597;BMP180;70000;51.176;-115.568;2023-09-18T06:04:09;85922.20;;;15.80
69597;BMP180;70000;51.176;-115.568;2023-09-18T06:07:06;85928.40;;;15.80
69597;BMP180;70000;51.176;-115.568;2023-09-18T06:09:36;85927.80;;;15.80
69597;BMP180;70000;51.176;-115.568;2023-09-18T06:12:08;85926.60;;;15.80
69597;BMP180;70000;51.176;-115.568;2023-09-18T06:14:40;85922.80;;;15.80
69597;BMP180;70000;51.176;-115.568;2023-09-18T06:17:12;85922.40;;;15.78
69597;BMP180;70000;51.176;-115.568;2023-09-18T06:19:46;85923.40;;;15.70
69597;BMP180;70000;51.176;-115.568;2023-09-18T06:22:20;85917.00;;;15.70
69597;BMP180;70000;51.176;-115.568;2023-09-18T06:24:49;85921.60;;;15.70
69597;BMP180;70000;51.176;-115.568;2023-09-18T06:27:26;85915.00;;;15.70
69597;BMP180;70000;51.176;-115.568;2023-09-18T06:30:10;85918.60;;;15.66
69597;BMP180;70000;51.176;-115.568;2023-09-18T06:33:08;85913.60;;;15.60
69597;BMP180;70000;51.176;-115.568;2023-09-18T06:35:43;85907.40;;;15.58
69597;BMP180;70000;51.176;-115.568;2023-09-18T06:38:24;85912.40;;;15.50
69597;BMP180;70000;51.176;-115.568;2023-09-18T06:41:05;85907.40;;;15.50
69597;BMP180;70000;51.176;-115.568;2023-09-18T06:43:41;85908.20;;;15.50
69597;BMP180;70000;51.176;-115.568;2023-09-18T06:46:17;85904.80;;;15.50
69597;BMP180;70000;51.176;-115.568;2023-09-18T06:48:51;85910.60;;;15.40
69597;BMP180;70000;51.176;-115.568;2023-09-18T06:51:23;85913.80;;;15.40
69597;BMP180;70000;51.176;-115.568;2023-09-18T06:54:10;85908.40;;;15.34
69597;BMP180;70000;51.176;-115.568;2023-09-18T06:57:03;85912.00;;;15.30
69597;BMP180;70000;51.176;-115.568;2023-09-18T06:59:32;85906.40;;;15.30
69597;BMP180;70000;51.176;-115.568;2023-09-18T07:02:06;85902.60;;;15.30
69597;BMP180;70000;51.176;-115.568;2023-09-18T07:04:44;85897.40;;;15.30
69597;BMP180;70000;51.176;-115.568;2023-09-18T07:07:15;85898.80;;;15.30
69597;BMP180;70000;51.176;-115.568;2023-09-18T07:09:46;85898.20;;;15.30
69597;BMP180;70000;51.176;-115.568;2023-09-18T07:12:31;85900.20;;;15.30
69597;BMP180;70000;51.176;-115.568;2023-09-18T07:15:02;85900.60;;;15.30
69597;BMP180;70000;51.176;-115.568;2023-09-18T07:17:36;85896.40;;;15.22
69597;BMP180;70000;51.176;-115.568;2023-09-18T07:20:08;85887.20;;;15.20
69597;BMP180;70000;51.176;-115.568;2023-09-18T07:23:06;85892.00;;;15.16
69597;BMP180;70000;51.176;-115.568;2023-09-18T07:25:36;85888.80;;;15.10
69597;BMP180;70000;51.176;-115.568;2023-09-18T07:28:08;85889.40;;;15.08
69597;BMP180;70000;51.176;-115.568;2023-09-18T07:30:47;85888.00;;;15.00
69597;BMP180;70000;51.176;-115.568;2023-09-18T07:33:22;85880.00;;;14.90
69597;BMP180;70000;51.176;-115.568;2023-09-18T07:35:59;85875.40;;;14.90
69597;BMP180;70000;51.176;-115.568;2023-09-18T07:38:38;85876.60;;;14.90
69597;BMP180;70000;51.176;-115.568;2023-09-18T07:41:16;85866.40;;;14.80
69597;BMP180;70000;51.176;-115.568;2023-09-18T07:44:18;85862.80;;;14.80
69597;BMP180;70000;51.176;-115.568;2023-09-18T07:46:52;85861.40;;;14.70
69597;BMP180;70000;51.176;-115.568;2023-09-18T07:49:23;85848.40;;;14.60
69597;BMP180;70000;51.176;-115.568;2023-09-18T07:52:03;85860.00;;;14.60
69597;BMP180;70000;51.176;-115.568;2023-09-18T07:55:03;85857.60;;;14.50
69597;BMP180;70000;51.176;-115.568;2023-09-18T07:57:36;85856.00;;;14.42
69597;BMP180;70000;51.176;-115.568;2023-09-18T08:00:06;85856.00;;;14.40
69597;BMP180;70000;51.176;-115.568;2023-09-18T08:02:41;85852.00;;;14.30
69597;BMP180;70000;51.176;-115.568;2023-09-18T08:05:11;85847.00;;;14.30
69597;BMP180;70000;51.176;-115.568;2023-09-18T08:07:42;85844.00;;;14.20
69597;BMP180;70000;51.176;-115.568;2023-09-18T08:10:11;85842.60;;;14.10
69597;BMP180;70000;51.176;-115.568;2023-09-18T08:12:47;85849.40;;;14.10
69597;BMP180;70000;51.176;-115.568;2023-09-18T08:15:24;85840.60;;;14.10
69597;BMP180;70000;51.176;-115.568;2023-09-18T08:17:53;85842.20;;;14.10
69597;BMP180;70000;51.176;-115.568;2023-09-18T08:20:25;85834.20;;;14.20
69597;BMP180;70000;51.176;-115.568;2023-09-18T08:22:54;85842.00;;;14.30
69597;BMP180;70000;51.176;-115.568;2023-09-18T08:29:15;85838.20;;;14.70
69597;BMP180;70000;51.176;-115.568;2023-09-18T08:32:29;85839.60;;;14.90
69597;BMP180;70000;51.176;-115.568;2023-09-18T08:35:18;85833.80;;;15.10
69597;BMP180;70000;51.176;-115.568;2023-09-18T08:42:10;85825.40;;;15.46
69597;BMP180;70000;51.176;-115.568;2023-09-18T08:45:08;85822.00;;;15.60
69597;BMP180;70000;51.176;-115.568;2023-09-18T08:48:22;85825.20;;;15.74
69597;BMP180;70000;51.176;-115.568;2023-09-18T08:51:05;85824.00;;;15.80
69597;BMP180;70000;51.176;-115.568;2023-09-18T08:53:44;85818.00;;;15.90
69597;BMP180;70000;51.176;-115.568;2023-09-18T08:56:39;85816.40;;;16.00
69597;BMP180;70000;51.176;-115.568;2023-09-18T08:59:22;85821.00;;;16.00
69597;BMP180;70000;51.176;-115.568;2023-09-18T09:02:00;85822.60;;;16.04
69597;BMP180;70000;51.176;-115.568;2023-09-18T09:04:50;85824.40;;;16.10
69597;BMP180;70000;51.176;-115.568;2023-09-18T09:07:22;85821.40;;;16.10
69597;BMP180;70000;51.176;-115.568;2023-09-18T09:10:05;85814.60;;;16.10
69597;BMP180;70000;51.176;-115.568;2023-09-18T09:12:58;85808.80;;;16.20
69597;BMP180;70000;51.176;-115.568;2023-09-18T09:15:48;85800.40;;;16.20
69597;BMP180;70000;51.176;-115.568;2023-09-18T09:18:23;85799.20;;;16.30
69597;BMP180;70000;51.176;-115.568;2023-09-18T09:21:17;85802.00;;;16.30
69597;BMP180;70000;51.176;-115.568;2023-09-18T09:23:53;85800.40;;;16.30
69597;BMP180;70000;51.176;-115.568;2023-09-18T09:26:32;85800.20;;;16.30
69597;BMP180;70000;51.176;-115.568;2023-09-18T09:29:28;85795.00;;;16.30
69597;BMP180;70000;51.176;-115.568;2023-09-18T09:32:17;85796.60;;;16.30
69597;BMP180;70000;51.176;-115.568;2023-09-18T09:35:00;85801.80;;;16.30
69597;BMP180;70000;51.176;-115.568;2023-09-18T09:37:47;85800.40;;;16.30
69597;BMP180;70000;51.176;-115.568;2023-09-18T09:40:25;85803.40;;;16.30
69597;BMP180;70000;51.176;-115.568;2023-09-18T09:43:13;85804.20;;;16.28
69597;BMP180;70000;51.176;-115.568;2023-09-18T09:46:31;85807.20;;;16.30
69597;BMP180;70000;51.176;-115.568;2023-09-18T09:49:18;85808.40;;;16.30
69597;BMP180;70000;51.176;-115.568;2023-09-18T09:52:05;85803.80;;;16.22
69597;BMP180;70000;51.176;-115.568;2023-09-18T09:55:23;85807.60;;;16.20
69597;BMP180;70000;51.176;-115.568;2023-09-18T09:58:09;85813.00;;;16.20
69597;BMP180;70000;51.176;-115.568;2023-09-18T10:00:56;85815.40;;;16.10
69597;BMP180;70000;51.176;-115.568;2023-09-18T10:03:59;85808.20;;;16.10
69597;BMP180;70000;51.176;-115.568;2023-09-18T10:07:19;85814.60;;;16.10
69597;BMP180;70000;51.176;-115.568;2023-09-18T10:10:11;85816.20;;;16.04
69597;BMP180;70000;51.176;-115.568;2023-09-18T10:12:49;85809.60;;;16.00
69597;BMP180;70000;51.176;-115.568;2023-09-18T10:15:51;85811.60;;;16.00
69597;BMP180;70000;51.176;-115.568;2023-09-18T10:19:27;85813.60;;;16.00
69597;BMP180;70000;51.176;-115.568;2023-09-18T10:25:38;85810.40;;;16.00
69597;BMP180;70000;51.176;-115.568;2023-09-18T10:28:44;85815.00;;;15.92
69597;BMP180;70000;51.176;-115.568;2023-09-18T10:31:40;85812.60;;;15.90
69597;BMP180;70000;51.176;-115.568;2023-09-18T10:34:39;85810.80;;;15.90
69597;BMP180;70000;51.176;-115.568;2023-09-18T10:37:20;85816.40;;;15.90
69597;BMP180;70000;51.176;-115.568;2023-09-18T10:40:28;85807.40;;;15.90
69597;BMP180;70000;51.176;-115.568;2023-09-18T10:43:23;85812.60;;;15.90
69597;BMP180;70000;51.176;-115.568;2023-09-18T10:45:55;85807.20;;;15.90
69597;BMP180;70000;51.176;-115.568;2023-09-18T10:48:36;85813.80;;;15.90
69597;BMP180;70000;51.176;-115.568;2023-09-18T10:51:28;85806.60;;;15.90
69597;BMP180;70000;51.176;-115.568;2023-09-18T10:54:14;85804.80;;;15.90
69597;BMP180;70000;51.176;-115.568;2023-09-18T10:56:45;85797.20;;;15.90
69597;BMP180;70000;51.176;-115.568;2023-09-18T10:59:28;85794.60;;;15.90
69597;BMP180;70000;51.176;-115.568;2023-09-18T11:02:04;85799.40;;;15.90
69597;BMP180;70000;51.176;-115.568;2023-09-18T11:04:46;85795.60;;;15.90
69597;BMP180;70000;51.176;-115.568;2023-09-18T11:07:25;85797.80;;;16.00
69597;BMP180;70000;51.176;-115.568;2023-09-18T11:09:57;85791.80;;;16.00
69597;BMP180;70000;51.176;-115.568;2023-09-18T11:13:09;85787.60;;;16.00
69597;BMP180;70000;51.176;-115.568;2023-09-18T11:15:51;85795.20;;;16.00
69597;BMP180;70000;51.176;-115.568;2023-09-18T11:18:49;85796.00;;;16.00
69597;BMP180;70000;51.176;-115.568;2023-09-18T11:21:30;85797.60;;;16.00
69597;BMP180;70000;51.176;-115.568;2023-09-18T11:24:21;85797.40;;;16.00
69597;BMP180;70000;51.176;-115.568;2023-09-18T11:27:11;85795.60;;;15.90
69597;BMP180;70000;51.176;-115.568;2023-09-18T11:29:44;85798.80;;;15.88
69597;BMP180;70000;51.176;-115.568;2023-09-18T11:32:38;85803.40;;;15.80
69597;BMP180;70000;51.176;-115.568;2023-09-18T11:35:24;85805.00;;;15.80
69597;BMP180;70000;51.176;-115.568;2023-09-18T11:38:09;85810.80;;;15.70
69597;BMP180;70000;51.176;-115.568;2023-09-18T11:40:41;85809.00;;;15.70
69597;BMP180;70000;51.176;-115.568;2023-09-18T11:43:30;85809.00;;;15.62
69597;BMP180;70000;51.176;-115.568;2023-09-18T11:46:01;85798.00;;;15.60
69597;BMP180;70000;51.176;-115.568;2023-09-18T11:48:42;85792.80;;;15.60
69597;BMP180;70000;51.176;-115.568;2023-09-18T11:51:14;85790.00;;;15.60
69597;BMP180;70000;51.176;-115.568;2023-09-18T11:53:45;85794.40;;;15.60
69597;BMP180;70000;51.176;-115.568;2023-09-18T11:56:21;85796.00;;;15.60
69597;BMP180;70000;51.176;-115.568;2023-09-18T11:58:54;85791.00;;;15.60
69597;BMP180;70000;51.176;-115.568;2023-09-18T12:01:29;85789.80;;;15.60
69597;BMP180;70000;51.176;-115.568;2023-09-18T12:04:15;85788.80;;;15.60
69597;BMP180;70000;51.176;-115.568;2023-09-18T12:06:52;85794.20;;;15.60
69597;BMP180;70000;51.176;-115.568;2023-09-18T12:09:41;85788.20;;;15.60
69597;BMP180;70000;51.176;-115.568;2023-09-18T12:12:21;85787.40;;;15.50
69597;BMP180;70000;51.176;-115.568;2023-09-18T12:14:54;85785.00;;;15.50
69597;BMP180;70000;51.176;-115.568;2023-09-18T12:17:25;85783.00;;;15.40
69597;BMP180;70000;51.176;-115.568;2023-09-18T12:19:56;85786.40;;;15.40
69597;BMP180;70000;51.176;-115.568;2023-09-18T12:22:29;85785.40;;;15.32
69597;BMP180;70000;51.176;-115.568;2023-09-18T12:25:13;85783.40;;;15.30
69597;BMP180;70000;51.176;-115.568;2023-09-18T12:27:53;85776.60;;;15.20
69597;BMP180;70000;51.176;-115.568;2023-09-18T12:30:23;85774.80;;;15.20
69597;BMP180;70000;51.176;-115.568;2023-09-18T12:32:57;85776.00;;;15.10
69597;BMP180;70000;51.176;-115.568;2023-09-18T12:35:29;85774.20;;;15.00
69597;BMP180;70000;51.176;-115.568;2023-09-18T12:38:01;85768.80;;;14.92
69597;BMP180;70000;51.176;-115.568;2023-09-18T12:40:33;85777.00;;;14.90
69597;BMP180;70000;51.176;-115.568;2023-09-18T12:43:05;85769.80;;;14.80
69597;BMP180;70000;51.176;-115.568;2023-09-18T12:45:35;85766.00;;;14.78
69597;BMP180;70000;51.176;-115.568;2023-09-18T12:48:06;85756.80;;;14.70
69597;BMP180;70000;51.176;-115.568;2023-09-18T12:50:36;85762.20;;;14.60
69597;BMP180;70000;51.176;-115.568;2023-09-18T12:53:22;85759.00;;;14.60
69597;BMP180;70000;51.176;-115.568;2023-09-18T12:55:52;85747.40;;;14.50
69597;BMP180;70000;51.176;-115.568;2023-09-18T12:58:24;85747.60;;;14.48
69597;BMP180;70000;51.176;-115.568;2023-09-18T13:00:56;85748.20;;;14.40
69597;BMP180;70000;51.176;-115.568;2023-09-18T13:03:43;85750.20;;;14.40
69597;BMP180;70000;51.176;-115.568;2023-09-18T13:06:18;85752.40;;;14.34
69597;BMP180;70000;51.176;-115.568;2023-09-18T13:08:53;85752.60;;;14.30
69597;BMP180;70000;51.176;-115.568;2023-09-18T13:11:27;85736.40;;;14.20
69597;BMP180;70000;51.176;-115.568;2023-09-18T13:13:59;85743.20;;;14.20
69597;BMP180;70000;51.176;-115.568;2023-09-18T13:16:28;85740.40;;;14.12
69597;BMP180;70000;51.176;-115.568;2023-09-18T13:18:57;85732.80;;;14.10
69597;BMP180;70000;51.176;-115.568;2023-09-18T13:21:35;85723.60;;;14.10
69597;BMP180;70000;51.176;-115.568;2023-09-18T13:24:28;85726.40;;;14.08
69597;BMP180;70000;51.176;-115.568;2023-09-18T13:26:58;85734.80;;;14.00
69597;BMP180;70000;51.176;-115.568;2023-09-18T13:29:30;85730.60;;;14.00
69597;BMP180;70000;51.176;-115.568;2023-09-18T13:32:00;85721.00;;;14.00
69597;BMP180;70000;51.176;-115.568;2023-09-18T13:34:35;85731.60;;;14.00
69597;BMP180;70000;51.176;-115.568;2023-09-18T13:37:34;85725.40;;;14.00
69597;BMP180;70000;51.176;-115.568;2023-09-18T13:40:48;85736.60;;;14.00
69597;BMP180;70000;51.176;-115.568;2023-09-18T13:43:50;85734.40;;;14.10
69597;BMP180;70000;51.176;-115.568;2023-09-18T13:46:59;85736.20;;;14.20
69597;BMP180;70000;51.176;-115.568;2023-09-18T13:50:04;85734.80;;;14.30
69597;BMP180;70000;51.176;-115.568;2023-09-18T13:52:44;85735.80;;;14.30
69597;BMP180;70000;51.176;-115.568;2023-09-18T13:55:17;85732.60;;;14.38
69597;BMP180;70000;51.176;-115.568;2023-09-18T13:58:00;85741.00;;;14.40
69597;BMP180;70000;51.176;-115.568;2023-09-18T14:01:27;85737.60;;;14.50
69597;BMP180;70000;51.176;-115.568;2023-09-18T14:04:28;85742.20;;;14.60
69597;BMP180;70000;51.176;-115.568;2023-09-18T14:07:26;85742.80;;;14.70
69597;BMP180;70000;51.176;-115.568;2023-09-18T14:10:33;85731.00;;;14.74
69597;BMP180;70000;51.176;-115.568;2023-09-18T14:13:18;85736.40;;;14.80
69597;BMP180;70000;51.176;-115.568;2023-09-18T14:15:51;85737.20;;;14.90
69597;BMP180;70000;51.176;-115.568;2023-09-18T14:18:59;85725.00;;;14.90
69597;BMP180;70000;51.176;-115.568;2023-09-18T14:21:33;85719.40;;;14.90
69597;BMP180;70000;51.176;-115.568;2023-09-18T14:24:37;85713.80;;;14.98
69597;BMP180;70000;51.176;-115.568;2023-09-18T14:27:19;85719.20;;;15.00
69597;BMP180;70000;51.176;-115.568;2023-09-18T14:30:14;85724.00;;;15.10
69597;BMP180;70000;51.176;-115.568;2023-09-18T14:33:13;85711.00;;;15.10
69597;BMP180;70000;51.176;-115.568;2023-09-18T14:36:16;85702.80;;;15.16
69597;BMP180;70000;51.176;-115.568;2023-09-18T14:39:18;85699.20;;;15.20
69597;BMP180;70000;51.176;-115.568;2023-09-18T14:42:08;85695.40;;;15.20
69597;BMP180;70000;51.176;-115.568;2023-09-18T14:44:48;85699.40;;;15.20
69597;BMP180;70000;51.176;-115.568;2023-09-18T14:47:24;85697.00;;;15.30
69597;BMP180;70000;51.176;-115.568;2023-09-18T14:49:56;85704.60;;;15.40
69597;BMP180;70000;51.176;-115.568;2023-09-18T14:52:44;85700.20;;;15.50
69597;BMP180;70000;51.176;-115.568;2023-09-18T14:55:19;85700.20;;;15.60
69597;BMP180;70000;51.176;-115.568;2023-09-18T14:58:20;85700.80;;;15.70
69597;BMP180;70000;51.176;-115.568;2023-09-18T15:00:54;85706.00;;;15.80
69597;BMP180;70000;51.176;-115.568;2023-09-18T15:03:24;85708.20;;;15.84
69597;BMP180;70000;51.176;-115.568;2023-09-18T15:06:20;85707.00;;;15.90
69597;BMP180;70000;51.176;-115.568;2023-09-18T15:08:59;85705.40;;;16.00
69597;BMP180;70000;51.176;-115.568;2023-09-18T15:11:36;85700.80;;;16.10
69597;BMP180;70000;51.176;-115.568;2023-09-18T15:14:18;85702.60;;;16.14
69597;BMP180;70000;51.176;-115.568;2023-09-18T15:16:57;85695.80;;;16.20
69597;BMP180;70000;51.176;-115.568;2023-09-18T15:19:47;85700.20;;;16.30
69597;BMP180;70000;51.176;-115.568;2023-09-18T15:22:34;85697.60;;;16.30
69597;BMP180;70000;51.176;-115.568;2023-09-18T15:33:05;85708.20;;;16.48
69597;BMP180;70000;51.176;-115.568;2023-09-18T15:35:38;85710.00;;;16.50
69597;BMP180;70000;51.176;-115.568;2023-09-18T15:39:19;85714.60;;;16.52
69597;BMP180;70000;51.176;-115.568;2023-09-18T15:42:10;85711.80;;;16.60
69597;BMP180;70000;51.176;-115.568;2023-09-18T15:45:20;85713.80;;;16.60
69597;BMP180;70000;51.176;-115.568;2023-09-18T15:56:38;85713.40;;;16.72
69597;BMP180;70000;51.176;-115.568;2023-09-18T15:59:33;85708.60;;;16.80
69597;BMP180;70000;51.176;-115.568;2023-09-18T16:06:27;85700.20;;;16.72
69597;BMP180;70000;51.176;-115.568;2023-09-18T16:09:30;85720.60;;;16.70
69597;BMP180;70000;51.176;-115.568;2023-09-18T16:12:51;85727.00;;;16.80
69597;BMP180;70000;51.176;-115.568;2023-09-18T16:16:03;85719.20;;;16.80
69597;BMP180;70000;51.176;-115.568;2023-09-18T16:19:34;85727.00;;;16.90
69597;BMP180;70000;51.176;-115.568;2023-09-18T16:22:35;85727.80;;;16.90
69597;BMP180;70000;51.176;-115.568;2023-09-18T16:25:09;85717.40;;;16.94
69597;BMP180;70000;51.176;-115.568;2023-09-18T16:28:12;85722.20;;;17.00
69597;BMP180;70000;51.176;-115.568;2023-09-18T16:30:47;85710.20;;;17.10
69597;BMP180;70000;51.176;-115.568;2023-09-18T16:33:34;85720.00;;;17.16
69597;BMP180;70000;51.176;-115.568;2023-09-18T16:36:14;85720.60;;;17.20